sensor_id;sensor_type;location;lat;lon;timestamp;pressure;altitude;pressure_sealevel;temperature;humidity
80648;BME280;70012;0.000;0.000;2023-11-21T00:01:06;100081.94;;;7.93;89.38
80648;BME280;70012;0.000;0.000;2023-11-21T00:03:35;100081.13;;;7.92;89.96
80648;BME280;70012;0.000;0.000;2023-11-21T00:06:03;100064.09;;;7.85;90.14
80648;BME280;70012;0.000;0.000;2023-11-21T00:08:29;100084.91;;;7.91;89.70
80648;BME280;70012;0.000;0.000;2023-11-21T00:10:56;100083.59;;;7.94;89.70
80648;BME280;70012;0.000;0.000;2023-11-21T00:13:23;100086.56;;;7.92;90.74
80648;BME280;70012;0.000;0.000;2023-11-21T00:15:50;100079.94;;;7.88;91.15
80648;BME280;70012;0.000;0.000;2023-11-21T00:18:17;100075.00;;;7.85;90.89
80648;BME280;70012;0.000;0.000;2023-11-21T00:20:44;100071.19;;;7.86;90.49
80648;BME280;70012;0.000;0.000;2023-11-21T00:23:11;100083.84;;;7.92;90.88
80648;BME280;70012;0.000;0.000;2023-11-21T00:25:38;100069.53;;;7.85;90.92
80648;BME280;70012;0.000;0.000;2023-11-21T00:28:06;100084.31;;;7.89;90.70
80648;BME280;70012;0.000;0.000;2023-11-21T00:30:33;100091.19;;;7.92;90.37
80648;BME280;70012;0.000;0.000;2023-11-21T00:33:00;100090.59;;;7.90;90.60
80648;BME280;70012;0.000;0.000;2023-11-21T00:35:26;100088.72;;;7.90;90.71
80648;BME280;70012;0.000;0.000;2023-11-21T00:37:53;100097.47;;;7.92;91.56
80648;BME280;70012;0.000;0.000;2023-11-21T00:40:20;100099.59;;;7.90;90.85
80648;BME280;70012;0.000;0.000;2023-11-21T00:42:48;100101.84;;;7.93;91.42
80648;BME280;70012;0.000;0.000;2023-11-21T00:45:14;100101.84;;;7.93;91.32
80648;BME280;70012;0.000;0.000;2023-11-21T00:47:41;100107.28;;;7.93;90.82
80648;BME280;70012;0.000;0.000;2023-11-21T00:50:09;100090.50;;;7.84;92.32
80648;BME280;70012;0.000;0.000;2023-11-21T00:52:36;100102.09;;;7.92;90.94
80648;BME280;70012;0.000;0.000;2023-11-21T00:55:04;100096.28;;;7.88;91.46
80648;BME280;70012;0.000;0.000;2023-11-21T00:57:34;100111.69;;;7.94;90.86
80648;BME280;70012;0.000;0.000;2023-11-21T01:00:01;100105.88;;;7.91;90.64
80648;BME280;70012;0.000;0.000;2023-11-21T01:02:30;100101.75;;;7.88;91.59
80648;BME280;70012;0.000;0.000;2023-11-21T01:04:57;100097.75;;;7.79;92.58
80648;BME280;70012;0.000;0.000;2023-11-21T01:07:24;100116.94;;;7.84;92.64
80648;BME280;70012;0.000;0.000;2023-11-21T01:09:50;100124.75;;;7.92;91.88
80648;BME280;70012;0.000;0.000;2023-11-21T01:12:17;100122.97;;;7.86;92.44
80648;BME280;70012;0.000;0.000;2023-11-21T01:14:44;100099.88;;;7.77;92.54
80648;BME280;70012;0.000;0.000;2023-11-21T01:17:12;100119.41;;;7.85;91.63
80648;BME280;70012;0.000;0.000;2023-11-21T01:19:39;100139.78;;;7.95;91.10
80648;BME280;70012;0.000;0.000;2023-11-21T01:22:05;100136.22;;;7.94;91.88
80648;BME280;70012;0.000;0.000;2023-11-21T01:24:32;100110.28;;;7.80;91.65
80648;BME280;70012;0.000;0.000;2023-11-21T01:26:59;100122.84;;;7.81;91.17
80648;BME280;70012;0.000;0.000;2023-11-21T01:29:25;100132.91;;;7.92;90.88
80648;BME280;70012;0.000;0.000;2023-11-21T01:31:52;100112.44;;;7.78;90.52
80648;BME280;70012;0.000;0.000;2023-11-21T01:34:19;100133.13;;;7.91;90.32
80648;BME280;70012;0.000;0.000;2023-11-21T01:36:47;100132.56;;;7.89;91.19
80648;BME280;70012;0.000;0.000;2023-11-21T01:39:13;100142.25;;;7.96;90.44
80648;BME280;70012;0.000;0.000;2023-11-21T01:41:42;100142.25;;;7.96;90.83
80648;BME280;70012;0.000;0.000;2023-11-21T01:44:10;100148.19;;;7.93;92.21
80648;BME280;70012;0.000;0.000;2023-11-21T01:46:38;100160.75;;;7.94;91.28
80648;BME280;70012;0.000;0.000;2023-11-21T01:49:05;100156.94;;;7.95;91.60
80648;BME280;70012;0.000;0.000;2023-11-21T01:51:33;100146.19;;;7.89;91.04
80648;BME280;70012;0.000;0.000;2023-11-21T01:54:00;100155.78;;;7.91;91.76
80648;BME280;70012;0.000;0.000;2023-11-21T01:56:27;100154.13;;;7.90;91.61
80648;BME280;70012;0.000;0.000;2023-11-21T01:58:54;100155.53;;;7.93;90.96
80648;BME280;70012;0.000;0.000;2023-11-21T02:01:21;100154.59;;;7.87;91.51
80648;BME280;70012;0.000;0.000;2023-11-21T02:03:47;100157.44;;;7.92;91.13
80648;BME280;70012;0.000;0.000;2023-11-21T02:06:14;100157.91;;;7.89;91.82
80648;BME280;70012;0.000;0.000;2023-11-21T02:08:41;100167.16;;;7.88;91.61
80648;BME280;70012;0.000;0.000;2023-11-21T02:11:10;100153.06;;;7.79;91.45
80648;BME280;70012;0.000;0.000;2023-11-21T02:13:39;100155.34;;;7.71;91.42
80648;BME280;70012;0.000;0.000;2023-11-21T02:16:10;100174.88;;;7.79;91.50
80648;BME280;70012;0.000;0.000;2023-11-21T02:18:39;100167.41;;;7.75;91.60
80648;BME280;70012;0.000;0.000;2023-11-21T02:21:06;100174.19;;;7.72;91.49
80648;BME280;70012;0.000;0.000;2023-11-21T02:23:33;100183.75;;;7.75;91.77
80648;BME280;70012;0.000;0.000;2023-11-21T02:25:59;100190.97;;;7.81;91.61
80648;BME280;70012;0.000;0.000;2023-11-21T02:28:30;100174.19;;;7.72;91.18
80648;BME280;70012;0.000;0.000;2023-11-21T02:30:57;100192.66;;;7.82;91.14
80648;BME280;70012;0.000;0.000;2023-11-21T02:33:25;100178.81;;;7.72;91.45
80648;BME280;70012;0.000;0.000;2023-11-21T02:35:52;100197.50;;;7.80;91.77
80648;BME280;70012;0.000;0.000;2023-11-21T02:38:21;100198.81;;;7.77;91.13
80648;BME280;70012;0.000;0.000;2023-11-21T02:40:48;100202.72;;;7.81;91.85
80648;BME280;70012;0.000;0.000;2023-11-21T02:43:16;100200.13;;;7.75;91.21
80648;BME280;70012;0.000;0.000;2023-11-21T02:45:43;100200.97;;;7.75;91.64
80648;BME280;70012;0.000;0.000;2023-11-21T02:48:09;100210.56;;;7.78;92.04
80648;BME280;70012;0.000;0.000;2023-11-21T02:50:36;100202.28;;;7.73;91.17
80648;BME280;70012;0.000;0.000;2023-11-21T02:53:04;100184.00;;;7.61;91.19
80648;BME280;70012;0.000;0.000;2023-11-21T02:55:32;100184.88;;;7.62;91.25
80648;BME280;70012;0.000;0.000;2023-11-21T02:58:02;100207.38;;;7.69;91.83
80648;BME280;70012;0.000;0.000;2023-11-21T03:00:30;100205.56;;;7.63;91.40
80648;BME280;70012;0.000;0.000;2023-11-21T03:02:57;100199.91;;;7.64;91.13
80648;BME280;70012;0.000;0.000;2023-11-21T03:05:24;100207.00;;;7.65;91.16
80648;BME280;70012;0.000;0.000;2023-11-21T03:07:51;100204.50;;;7.64;91.52
80648;BME280;70012;0.000;0.000;2023-11-21T03:10:17;100203.56;;;7.58;92.22
80648;BME280;70012;0.000;0.000;2023-11-21T03:12:44;100195.41;;;7.58;91.27
80648;BME280;70012;0.000;0.000;2023-11-21T03:15:11;100197.53;;;7.56;91.49
80648;BME280;70012;0.000;0.000;2023-11-21T03:17:38;100209.59;;;7.60;91.08
80648;BME280;70012;0.000;0.000;2023-11-21T03:20:05;100216.72;;;7.61;90.81
80648;BME280;70012;0.000;0.000;2023-11-21T03:22:32;100212.56;;;7.59;90.78
80648;BME280;70012;0.000;0.000;2023-11-21T03:24:59;100212.22;;;7.55;90.52
80648;BME280;70012;0.000;0.000;2023-11-21T03:27:26;100223.22;;;7.60;90.69
80648;BME280;70012;0.000;0.000;2023-11-21T03:29:53;100225.84;;;7.55;91.54
80648;BME280;70012;0.000;0.000;2023-11-21T03:32:20;100239.00;;;7.58;91.33
80648;BME280;70012;0.000;0.000;2023-11-21T03:34:55;100233.41;;;7.53;91.32
80648;BME280;70012;0.000;0.000;2023-11-21T03:37:23;100235.91;;;7.55;91.15
80648;BME280;70012;0.000;0.000;2023-11-21T03:39:51;100234.00;;;7.55;91.03
80648;BME280;70012;0.000;0.000;2023-11-21T03:42:18;100242.78;;;7.57;91.23
80648;BME280;70012;0.000;0.000;2023-11-21T03:44:45;100245.97;;;7.54;90.83
80648;BME280;70012;0.000;0.000;2023-11-21T03:47:11;100257.47;;;7.56;91.03
80648;BME280;70012;0.000;0.000;2023-11-21T03:49:38;100257.47;;;7.56;91.07
80648;BME280;70012;0.000;0.000;2023-11-21T03:52:05;100255.56;;;7.57;90.66
80648;BME280;70012;0.000;0.000;2023-11-21T03:54:34;100250.97;;;7.57;90.79
80648;BME280;70012;0.000;0.000;2023-11-21T03:57:00;100257.47;;;7.56;90.71
80648;BME280;70012;0.000;0.000;2023-11-21T03:59:27;100266.25;;;7.58;91.05
80648;BME280;70012;0.000;0.000;2023-11-21T04:01:57;100266.69;;;7.55;90.80
80648;BME280;70012;0.000;0.000;2023-11-21T04:04:24;100255.69;;;7.50;90.61
80648;BME280;70012;0.000;0.000;2023-11-21T04:06:51;100258.84;;;7.47;90.53
80648;BME280;70012;0.000;0.000;2023-11-21T04:09:18;100253.91;;;7.44;90.39
80648;BME280;70012;0.000;0.000;2023-11-21T04:11:45;100260.16;;;7.44;90.64
80648;BME280;70012;0.000;0.000;2023-11-21T04:14:13;100263.94;;;7.43;90.51
80648;BME280;70012;0.000;0.000;2023-11-21T04:16:40;100259.69;;;7.35;90.48
80648;BME280;70012;0.000;0.000;2023-11-21T04:19:08;100272.59;;;7.40;91.44
80648;BME280;70012;0.000;0.000;2023-11-21T04:21:37;100284.81;;;7.49;90.59
80648;BME280;70012;0.000;0.000;2023-11-21T04:24:06;100285.53;;;7.45;91.30
80648;BME280;70012;0.000;0.000;2023-11-21T04:26:32;100294.88;;;7.49;90.88
80648;BME280;70012;0.000;0.000;2023-11-21T04:28:59;100273.31;;;7.35;90.64
80648;BME280;70012;0.000;0.000;2023-11-21T04:31:26;100248.75;;;7.24;90.78
80648;BME280;70012;0.000;0.000;2023-11-21T04:33:53;100266.19;;;7.34;90.51
80648;BME280;70012;0.000;0.000;2023-11-21T04:36:20;100306.50;;;7.56;90.52
80648;BME280;70012;0.000;0.000;2023-11-21T04:38:46;100302.00;;;7.50;90.44
80648;BME280;70012;0.000;0.000;2023-11-21T04:41:13;100264.53;;;7.33;90.73
80648;BME280;70012;0.000;0.000;2023-11-21T04:43:40;100304.03;;;7.55;90.63
80648;BME280;70012;0.000;0.000;2023-11-21T04:46:07;100279.47;;;7.43;90.69
80648;BME280;70012;0.000;0.000;2023-11-21T04:48:33;100306.97;;;7.53;90.70
80648;BME280;70012;0.000;0.000;2023-11-21T04:51:00;100296.06;;;7.53;90.50
80648;BME280;70012;0.000;0.000;2023-11-21T04:53:27;100298.41;;;7.49;91.32
80648;BME280;70012;0.000;0.000;2023-11-21T04:55:54;100300.31;;;7.49;90.60
80648;BME280;70012;0.000;0.000;2023-11-21T04:58:21;100305.31;;;7.52;90.66
80648;BME280;70012;0.000;0.000;2023-11-21T05:00:48;100301.16;;;7.49;91.53
80648;BME280;70012;0.000;0.000;2023-11-21T05:03:15;100305.91;;;7.42;91.78
80648;BME280;70012;0.000;0.000;2023-11-21T05:05:42;100316.66;;;7.49;90.81
80648;BME280;70012;0.000;0.000;2023-11-21T05:08:09;100307.06;;;7.46;90.45
80648;BME280;70012;0.000;0.000;2023-11-21T05:10:36;100296.28;;;7.40;91.23
80648;BME280;70012;0.000;0.000;2023-11-21T05:13:05;100296.75;;;7.36;91.56
80648;BME280;70012;0.000;0.000;2023-11-21T05:15:37;100295.56;;;7.32;91.56
80648;BME280;70012;0.000;0.000;2023-11-21T05:18:05;100297.22;;;7.33;90.58
80648;BME280;70012;0.000;0.000;2023-11-21T05:20:33;100304.69;;;7.38;90.66
80648;BME280;70012;0.000;0.000;2023-11-21T05:23:01;100309.41;;;7.31;90.95
80648;BME280;70012;0.000;0.000;2023-11-21T05:25:27;100328.13;;;7.39;90.85
80648;BME280;70012;0.000;0.000;2023-11-21T05:27:54;100319.94;;;7.27;91.23
80648;BME280;70012;0.000;0.000;2023-11-21T05:30:22;100315.41;;;7.21;90.88
80648;BME280;70012;0.000;0.000;2023-11-21T05:32:49;100334.16;;;7.29;90.83
80648;BME280;70012;0.000;0.000;2023-11-21T05:35:16;100346.22;;;7.33;90.94
80648;BME280;70012;0.000;0.000;2023-11-21T05:37:45;100337.31;;;7.26;90.62
80648;BME280;70012;0.000;0.000;2023-11-21T05:40:13;100309.56;;;7.05;90.74
80648;BME280;70012;0.000;0.000;2023-11-21T05:42:40;100345.97;;;7.23;90.97
80648;BME280;70012;0.000;0.000;2023-11-21T05:45:08;100348.09;;;7.21;90.76
80648;BME280;70012;0.000;0.000;2023-11-21T05:47:42;100306.31;;;6.97;90.40
80648;BME280;70012;0.000;0.000;2023-11-21T05:50:11;100349.63;;;7.17;90.53
80648;BME280;70012;0.000;0.000;2023-11-21T05:52:43;100337.84;;;7.04;90.59
80648;BME280;70012;0.000;0.000;2023-11-21T05:55:10;100351.97;;;7.13;90.40
80648;BME280;70012;0.000;0.000;2023-11-21T05:57:38;100344.97;;;7.05;90.86
80648;BME280;70012;0.000;0.000;2023-11-21T06:00:09;100330.00;;;6.96;90.55
80648;BME280;70012;0.000;0.000;2023-11-21T06:02:49;100375.19;;;7.16;90.82
80648;BME280;70012;0.000;0.000;2023-11-21T06:05:25;100379.56;;;7.17;90.35
80648;BME280;70012;0.000;0.000;2023-11-21T06:07:54;100382.66;;;7.20;90.70
80648;BME280;70012;0.000;0.000;2023-11-21T06:10:22;100363.41;;;7.03;90.51
80648;BME280;70012;0.000;0.000;2023-11-21T06:12:51;100368.25;;;7.01;90.88
80648;BME280;70012;0.000;0.000;2023-11-21T06:15:18;100348.06;;;6.91;90.52
80648;BME280;70012;0.000;0.000;2023-11-21T06:17:51;100379.19;;;7.13;90.59
80648;BME280;70012;0.000;0.000;2023-11-21T06:20:21;100395.66;;;7.18;90.41
80648;BME280;70012;0.000;0.000;2023-11-21T06:22:50;100382.75;;;7.14;90.49
80648;BME280;70012;0.000;0.000;2023-11-21T06:25:17;100398.03;;;7.15;90.42
80648;BME280;70012;0.000;0.000;2023-11-21T06:27:46;100405.56;;;7.13;90.73
80648;BME280;70012;0.000;0.000;2023-11-21T06:30:14;100398.50;;;7.12;90.69
80648;BME280;70012;0.000;0.000;2023-11-21T06:32:42;100380.28;;;6.94;90.49
80648;BME280;70012;0.000;0.000;2023-11-21T06:35:13;100387.78;;;6.98;90.43
80648;BME280;70012;0.000;0.000;2023-11-21T06:37:43;100400.28;;;6.99;91.02
80648;BME280;70012;0.000;0.000;2023-11-21T06:40:17;100411.94;;;7.07;90.67
80648;BME280;70012;0.000;0.000;2023-11-21T06:42:46;100414.06;;;7.04;90.69
80648;BME280;70012;0.000;0.000;2023-11-21T06:45:13;100424.50;;;7.08;91.05
80648;BME280;70012;0.000;0.000;2023-11-21T06:47:41;100411.78;;;7.01;91.22
80648;BME280;70012;0.000;0.000;2023-11-21T06:50:09;100415.75;;;7.05;90.78
80648;BME280;70012;0.000;0.000;2023-11-21T06:52:36;100434.47;;;7.14;90.70
80648;BME280;70012;0.000;0.000;2023-11-21T06:55:03;100422.81;;;7.07;90.95
80648;BME280;70012;0.000;0.000;2023-11-21T06:57:31;100424.78;;;6.99;91.01
80648;BME280;70012;0.000;0.000;2023-11-21T06:59:57;100448.56;;;7.11;91.95
80648;BME280;70012;0.000;0.000;2023-11-21T07:02:24;100425.72;;;6.93;91.43
80648;BME280;70012;0.000;0.000;2023-11-21T07:04:51;100467.63;;;7.11;91.27
80648;BME280;70012;0.000;0.000;2023-11-21T07:07:18;100458.38;;;7.12;91.12
80648;BME280;70012;0.000;0.000;2023-11-21T07:09:45;100467.63;;;7.11;90.90
80648;BME280;70012;0.000;0.000;2023-11-21T07:12:11;100463.06;;;7.04;91.00
80648;BME280;70012;0.000;0.000;2023-11-21T07:14:38;100469.34;;;7.05;91.06
80648;BME280;70012;0.000;0.000;2023-11-21T07:17:07;100473.06;;;7.11;90.95
80648;BME280;70012;0.000;0.000;2023-11-21T07:19:34;100471.78;;;7.13;91.29
80648;BME280;70012;0.000;0.000;2023-11-21T07:22:01;100475.09;;;7.15;90.97
80648;BME280;70012;0.000;0.000;2023-11-21T07:24:27;100467.16;;;7.14;91.03
80648;BME280;70012;0.000;0.000;2023-11-21T07:26:54;100485.53;;;7.18;91.08
80648;BME280;70012;0.000;0.000;2023-11-21T07:29:24;100477.84;;;7.15;90.86
80648;BME280;70012;0.000;0.000;2023-11-21T07:31:56;100480.63;;;7.09;91.20
80648;BME280;70012;0.000;0.000;2023-11-21T07:34:23;100498.91;;;7.20;90.78
80648;BME280;70012;0.000;0.000;2023-11-21T07:36:50;100513.13;;;7.22;90.66
80648;BME280;70012;0.000;0.000;2023-11-21T07:39:17;100520.69;;;7.20;90.74
80648;BME280;70012;0.000;0.000;2023-11-21T07:41:44;100492.56;;;7.08;90.92
80648;BME280;70012;0.000;0.000;2023-11-21T07:44:18;100524.50;;;7.19;90.76
80648;BME280;70012;0.000;0.000;2023-11-21T07:46:47;100504.06;;;7.10;90.62
80648;BME280;70012;0.000;0.000;2023-11-21T07:49:14;100490.06;;;7.06;90.77
80648;BME280;70012;0.000;0.000;2023-11-21T07:51:47;100516.91;;;7.21;90.65
80648;BME280;70012;0.000;0.000;2023-11-21T07:54:14;100502.41;;;7.09;90.67
80648;BME280;70012;0.000;0.000;2023-11-21T07:56:40;100487.97;;;7.08;90.59
80648;BME280;70012;0.000;0.000;2023-11-21T07:59:08;100522.88;;;7.30;90.61
80648;BME280;70012;0.000;0.000;2023-11-21T08:01:35;100522.28;;;7.28;90.92
80648;BME280;70012;0.000;0.000;2023-11-21T08:04:01;100518.97;;;7.26;90.82
80648;BME280;70012;0.000;0.000;2023-11-21T08:06:31;100510.66;;;7.20;90.52
80648;BME280;70012;0.000;0.000;2023-11-21T08:08:58;100523.72;;;7.30;90.28
80648;BME280;70012;0.000;0.000;2023-11-21T08:11:25;100516.00;;;7.27;90.40
80648;BME280;70012;0.000;0.000;2023-11-21T08:13:57;100529.78;;;7.32;90.39
80648;BME280;70012;0.000;0.000;2023-11-21T08:16:25;100548.84;;;7.51;90.77
80648;BME280;70012;0.000;0.000;2023-11-21T08:18:52;100535.75;;;7.41;90.65
80648;BME280;70012;0.000;0.000;2023-11-21T08:21:19;100543.41;;;7.51;90.93
80648;BME280;70012;0.000;0.000;2023-11-21T08:23:46;100555.06;;;7.58;90.95
80648;BME280;70012;0.000;0.000;2023-11-21T08:26:16;100557.97;;;7.57;90.48
80648;BME280;70012;0.000;0.000;2023-11-21T08:28:42;100567.16;;;7.62;91.01
80648;BME280;70012;0.000;0.000;2023-11-21T08:31:09;100570.34;;;7.59;90.73
80648;BME280;70012;0.000;0.000;2023-11-21T08:33:39;100575.94;;;7.64;90.87
80648;BME280;70012;0.000;0.000;2023-11-21T08:36:09;100549.44;;;7.53;90.50
80648;BME280;70012;0.000;0.000;2023-11-21T08:38:37;100555.25;;;7.57;91.70
80648;BME280;70012;0.000;0.000;2023-11-21T08:41:05;100585.25;;;7.75;91.57
80648;BME280;70012;0.000;0.000;2023-11-21T08:43:35;100573.78;;;7.66;90.94
80648;BME280;70012;0.000;0.000;2023-11-21T08:46:02;100587.50;;;7.78;91.06
80648;BME280;70012;0.000;0.000;2023-11-21T08:48:29;100571.69;;;7.68;91.41
80648;BME280;70012;0.000;0.000;2023-11-21T08:50:56;100602.38;;;7.94;92.38
80648;BME280;70012;0.000;0.000;2023-11-21T08:53:23;100604.06;;;7.95;91.00
80648;BME280;70012;0.000;0.000;2023-11-21T08:55:50;100587.78;;;7.89;91.78
80648;BME280;70012;0.000;0.000;2023-11-21T08:58:17;100607.28;;;8.04;92.52
80648;BME280;70012;0.000;0.000;2023-11-21T09:00:43;100582.25;;;7.95;92.27
80648;BME280;70012;0.000;0.000;2023-11-21T09:03:13;100579.13;;;7.92;91.23
80648;BME280;70012;0.000;0.000;2023-11-21T09:05:39;100577.63;;;7.96;91.49
80648;BME280;70012;0.000;0.000;2023-11-21T09:08:06;100595.69;;;8.09;91.98
80648;BME280;70012;0.000;0.000;2023-11-21T09:10:34;100619.59;;;8.25;91.38
80648;BME280;70012;0.000;0.000;2023-11-21T09:13:03;100606.28;;;8.17;91.30
80648;BME280;70012;0.000;0.000;2023-11-21T09:15:30;100590.84;;;8.11;91.41
80648;BME280;70012;0.000;0.000;2023-11-21T09:17:57;100584.78;;;8.09;90.84
80648;BME280;70012;0.000;0.000;2023-11-21T09:20:24;100620.94;;;8.34;90.62
80648;BME280;70012;0.000;0.000;2023-11-21T09:22:50;100634.25;;;8.43;91.06
80648;BME280;70012;0.000;0.000;2023-11-21T09:25:17;100635.69;;;8.45;91.06
80648;BME280;70012;0.000;0.000;2023-11-21T09:27:46;100619.88;;;8.36;90.68
80648;BME280;70012;0.000;0.000;2023-11-21T09:30:13;100627.72;;;8.44;91.42
80648;BME280;70012;0.000;0.000;2023-11-21T09:32:43;100599.59;;;8.31;91.15
80648;BME280;70012;0.000;0.000;2023-11-21T09:35:12;100643.47;;;8.60;90.67
80648;BME280;70012;0.000;0.000;2023-11-21T09:37:41;100646.78;;;8.62;90.19
80648;BME280;70012;0.000;0.000;2023-11-21T09:40:10;100661.63;;;8.67;89.88
80648;BME280;70012;0.000;0.000;2023-11-21T09:42:57;100653.91;;;8.63;89.96
80648;BME280;70012;0.000;0.000;2023-11-21T09:45:29;100663.91;;;8.70;89.66
80648;BME280;70012;0.000;0.000;2023-11-21T09:48:01;100660.13;;;8.71;89.51
80648;BME280;70012;0.000;0.000;2023-11-21T09:50:35;100654.75;;;8.64;89.43
80648;BME280;70012;0.000;0.000;2023-11-21T09:53:13;100655.97;;;8.68;89.69
80648;BME280;70012;0.000;0.000;2023-11-21T09:55:44;100622.69;;;8.47;90.10
80648;BME280;70012;0.000;0.000;2023-11-21T09:58:13;100632.53;;;8.60;90.17
80648;BME280;70012;0.000;0.000;2023-11-21T10:00:42;100651.69;;;8.72;89.58
80648;BME280;70012;0.000;0.000;2023-11-21T10:03:10;100655.84;;;8.75;89.72
80648;BME280;70012;0.000;0.000;2023-11-21T10:05:38;100643.00;;;8.63;89.45
80648;BME280;70012;0.000;0.000;2023-11-21T10:08:09;100622.94;;;8.58;89.60
80648;BME280;70012;0.000;0.000;2023-11-21T10:10:37;100648.25;;;8.77;89.37
80648;BME280;70012;0.000;0.000;2023-11-21T10:13:06;100661.56;;;8.85;89.33
80648;BME280;70012;0.000;0.000;2023-11-21T10:15:34;100639.47;;;8.75;89.76
80648;BME280;70012;0.000;0.000;2023-11-21T10:18:02;100647.31;;;8.83;89.17
80648;BME280;70012;0.000;0.000;2023-11-21T10:20:30;100657.53;;;8.88;89.09
80648;BME280;70012;0.000;0.000;2023-11-21T10:22:58;100634.59;;;8.77;89.06
80648;BME280;70012;0.000;0.000;2023-11-21T10:25:25;100658.03;;;8.96;88.66
80648;BME280;70012;0.000;0.000;2023-11-21T10:27:56;100676.81;;;9.05;88.52
80648;BME280;70012;0.000;0.000;2023-11-21T10:30:28;100650.16;;;8.88;88.71
80648;BME280;70012;0.000;0.000;2023-11-21T10:32:59;100669.69;;;9.04;88.78
80648;BME280;70012;0.000;0.000;2023-11-21T10:35:38;100673.13;;;9.11;88.56
80648;BME280;70012;0.000;0.000;2023-11-21T10:38:05;100677.53;;;9.12;88.36
80648;BME280;70012;0.000;0.000;2023-11-21T10:40:32;100674.19;;;9.10;88.37
80648;BME280;70012;0.000;0.000;2023-11-21T10:43:06;100682.63;;;9.08;88.50
80648;BME280;70012;0.000;0.000;2023-11-21T10:45:37;100685.47;;;9.13;88.28
80648;BME280;70012;0.000;0.000;2023-11-21T10:48:07;100674.81;;;9.12;87.89
80648;BME280;70012;0.000;0.000;2023-11-21T10:50:35;100680.47;;;9.10;87.50
80648;BME280;70012;0.000;0.000;2023-11-21T10:53:03;100674.19;;;9.10;87.97
80648;BME280;70012;0.000;0.000;2023-11-21T10:55:32;100681.94;;;9.13;87.83
80648;BME280;70012;0.000;0.000;2023-11-21T10:58:01;100681.94;;;9.13;87.62
80648;BME280;70012;0.000;0.000;2023-11-21T11:00:33;100688.56;;;9.17;87.90
80648;BME280;70012;0.000;0.000;2023-11-21T11:03:00;100686.66;;;9.18;87.75
80648;BME280;70012;0.000;0.000;2023-11-21T11:05:29;100684.78;;;9.18;87.76
80648;BME280;70012;0.000;0.000;2023-11-21T11:08:00;100675.88;;;9.11;87.86
80648;BME280;70012;0.000;0.000;2023-11-21T11:10:29;100699.16;;;9.25;87.62
80648;BME280;70012;0.000;0.000;2023-11-21T11:12:57;100704.13;;;9.28;87.57
80648;BME280;70012;0.000;0.000;2023-11-21T11:15:25;100703.91;;;9.30;87.79
80648;BME280;70012;0.000;0.000;2023-11-21T11:17:54;100703.69;;;9.32;87.90
80648;BME280;70012;0.000;0.000;2023-11-21T11:20:27;100697.00;;;9.27;87.36
80648;BME280;70012;0.000;0.000;2023-11-21T11:23:08;100699.88;;;9.33;87.42
80648;BME280;70012;0.000;0.000;2023-11-21T11:25:49;100703.91;;;9.30;86.90
80648;BME280;70012;0.000;0.000;2023-11-21T11:28:22;100702.84;;;9.31;87.23
80648;BME280;70012;0.000;0.000;2023-11-21T11:31:18;100693.69;;;9.25;87.67
80648;BME280;70012;0.000;0.000;2023-11-21T11:33:55;100699.03;;;9.32;87.13
80648;BME280;70012;0.000;0.000;2023-11-21T11:36:44;100703.19;;;9.35;87.35
80648;BME280;70012;0.000;0.000;2023-11-21T11:39:39;100702.63;;;9.33;87.06
80648;BME280;70012;0.000;0.000;2023-11-21T11:42:12;100712.81;;;9.37;87.05
80648;BME280;70012;0.000;0.000;2023-11-21T11:47:27;100713.66;;;9.38;87.32
80648;BME280;70012;0.000;0.000;2023-11-21T11:52:35;100712.00;;;9.37;87.43
80648;BME280;70012;0.000;0.000;2023-11-21T11:55:03;100712.34;;;9.40;87.34
80648;BME280;70012;0.000;0.000;2023-11-21T11:57:34;100718.63;;;9.41;87.25
80648;BME280;70012;0.000;0.000;2023-11-21T12:00:18;100715.34;;;9.39;86.65
80648;BME280;70012;0.000;0.000;2023-11-21T12:02:49;100713.66;;;9.38;87.15
80648;BME280;70012;0.000;0.000;2023-11-21T12:05:19;100725.78;;;9.42;87.03
80648;BME280;70012;0.000;0.000;2023-11-21T12:07:51;100720.91;;;9.44;87.27
80648;BME280;70012;0.000;0.000;2023-11-21T12:10:23;100718.06;;;9.39;86.81
80648;BME280;70012;0.000;0.000;2023-11-21T12:12:54;100717.47;;;9.37;87.42
80648;BME280;70012;0.000;0.000;2023-11-21T12:15:21;100725.28;;;9.33;86.91
80648;BME280;70012;0.000;0.000;2023-11-21T12:17:49;100716.00;;;9.22;86.64
80648;BME280;70012;0.000;0.000;2023-11-21T12:20:19;100731.59;;;9.34;87.29
80648;BME280;70012;0.000;0.000;2023-11-21T12:22:48;100732.69;;;9.33;87.14
80648;BME280;70012;0.000;0.000;2023-11-21T12:25:26;100720.53;;;9.28;87.15
80648;BME280;70012;0.000;0.000;2023-11-21T12:27:56;100731.47;;;9.28;86.95
80648;BME280;70012;0.000;0.000;2023-11-21T12:30:27;100741.56;;;9.28;86.95
80648;BME280;70012;0.000;0.000;2023-11-21T12:32:57;100740.72;;;9.27;87.13
80648;BME280;70012;0.000;0.000;2023-11-21T12:35:26;100739.09;;;9.26;87.49
80648;BME280;70012;0.000;0.000;2023-11-21T12:37:55;100734.44;;;9.27;87.83
80648;BME280;70012;0.000;0.000;2023-11-21T12:40:24;100746.56;;;9.31;87.49
80648;BME280;70012;0.000;0.000;2023-11-21T12:42:53;100744.88;;;9.30;87.76
80648;BME280;70012;0.000;0.000;2023-11-21T12:45:24;100746.09;;;9.34;88.03
80648;BME280;70012;0.000;0.000;2023-11-21T12:50:28;100751.91;;;9.38;87.72
80648;BME280;70012;0.000;0.000;2023-11-21T12:53:02;100744.78;;;9.37;87.55
80648;BME280;70012;0.000;0.000;2023-11-21T12:55:32;100753.59;;;9.39;87.84
80648;BME280;70012;0.000;0.000;2023-11-21T12:58:01;100751.44;;;9.41;87.76
80648;BME280;70012;0.000;0.000;2023-11-21T13:00:43;100754.53;;;9.44;87.64
80648;BME280;70012;0.000;0.000;2023-11-21T13:03:13;100758.94;;;9.45;87.24
80648;BME280;70012;0.000;0.000;2023-11-21T13:05:47;100755.84;;;9.42;87.45
80648;BME280;70012;0.000;0.000;2023-11-21T13:08:20;100757.63;;;9.48;87.49
80648;BME280;70012;0.000;0.000;2023-11-21T13:10:55;100755.50;;;9.50;87.04
80648;BME280;70012;0.000;0.000;2023-11-21T13:13:25;100762.63;;;9.51;86.79
80648;BME280;70012;0.000;0.000;2023-11-21T13:16:02;100750.50;;;9.47;87.14
80648;BME280;70012;0.000;0.000;2023-11-21T13:18:32;100768.72;;;9.53;87.24
80648;BME280;70012;0.000;0.000;2023-11-21T13:21:05;100763.25;;;9.53;87.08
80648;BME280;70012;0.000;0.000;2023-11-21T13:23:43;100762.13;;;9.54;86.15
80648;BME280;70012;0.000;0.000;2023-11-21T13:26:13;100771.19;;;9.55;86.65